createdAt,value
2023-03-08T00:00:18.710Z,30.41
2023-03-08T00:01:18.666Z,30.40
2023-03-08T00:02:18.646Z,30.42
2023-03-08T00:03:18.639Z,30.40
2023-03-08T00:54:55.391Z,32.83
2023-03-08T00:55:56.356Z,31.95
2023-03-08T00:56:56.344Z,31.82
2023-03-08T00:57:56.332Z,31.73
2023-03-08T00:58:56.321Z,31.65
2023-03-08T00:59:56.321Z,31.59
2023-03-08T01:00:56.358Z,31.54
2023-03-08T01:01:56.301Z,31.47
2023-03-08T01:02:56.298Z,31.44
2023-03-08T01:03:56.337Z,31.38
2023-03-08T01:04:56.272Z,31.32
2023-03-08T01:05:56.282Z,31.26
2023-03-08T01:06:56.262Z,31.22
2023-03-08T01:07:56.249Z,31.20
2023-03-08T01:08:56.252Z,31.14
2023-03-08T01:09:56.239Z,31.12
2023-03-08T01:10:56.247Z,31.07
2023-03-08T01:11:56.214Z,31.05
2023-03-08T01:12:56.197Z,31.01
2023-03-08T01:13:56.210Z,30.96
2023-03-08T01:14:56.187Z,30.93
2023-03-08T01:15:56.186Z,30.89
2023-03-08T01:16:56.184Z,30.89
2023-03-08T01:17:56.165Z,30.86
2023-03-08T01:18:56.151Z,30.84
2023-03-08T01:19:56.153Z,30.80
2023-03-08T01:20:56.140Z,30.78
2023-03-08T01:21:56.141Z,30.73
2023-03-08T01:22:56.121Z,30.72
2023-03-08T01:23:56.114Z,30.71
2023-03-08T01:24:56.110Z,30.71
2023-03-08T01:25:56.090Z,30.70
2023-03-08T01:26:56.125Z,30.71
2023-03-08T01:27:56.074Z,30.68
2023-03-08T01:28:56.070Z,30.65
2023-03-08T01:29:56.076Z,30.66
2023-03-08T01:30:56.060Z,30.65
2023-03-08T01:31:56.047Z,30.62
2023-03-08T01:32:56.051Z,30.62
2023-03-08T01:33:56.036Z,30.60
2023-03-08T01:34:56.027Z,30.59
2023-03-08T01:35:56.062Z,30.58
2023-03-08T01:36:56.002Z,30.58
2023-03-08T01:37:55.989Z,30.58
2023-03-08T01:38:56.004Z,30.55
2023-03-08T01:39:55.986Z,30.54
2023-03-08T01:40:55.971Z,30.53
2023-03-08T01:41:55.964Z,30.52
2023-03-08T01:42:55.978Z,30.54
2023-03-08T01:43:55.943Z,30.55
2023-03-08T01:44:55.942Z,30.52
2023-03-08T01:45:55.942Z,30.53
2023-03-08T01:46:55.923Z,30.55
2023-03-08T01:47:55.923Z,30.54
2023-03-08T01:48:55.907Z,30.53
2023-03-08T01:49:55.899Z,30.52
2023-03-08T01:50:55.884Z,30.52
2023-03-08T01:51:55.878Z,30.51
2023-03-08T01:52:55.880Z,30.50
2023-03-08T01:53:55.862Z,30.50
2023-03-08T01:54:55.874Z,30.49
2023-03-08T01:55:55.844Z,30.46
2023-03-08T01:56:55.836Z,30.44
2023-03-08T01:57:55.840Z,30.43
2023-03-08T01:58:55.851Z,30.45
2023-03-08T01:59:55.808Z,30.44
2023-03-08T02:00:55.871Z,30.44
2023-03-08T02:01:55.800Z,30.44
2023-03-08T02:02:55.785Z,30.43
2023-03-08T02:03:55.778Z,30.44
2023-03-08T02:04:55.770Z,30.43
2023-03-08T02:05:55.766Z,30.39
2023-03-08T02:06:55.760Z,30.43
2023-03-08T02:07:55.754Z,30.42
2023-03-08T02:08:55.750Z,30.40
2023-03-08T02:09:55.738Z,30.40
2023-03-08T02:10:55.723Z,30.41
2023-03-08T02:11:55.719Z,30.40
2023-03-08T02:12:55.708Z,30.41
2023-03-08T02:13:55.701Z,30.42
2023-03-08T02:14:55.724Z,30.41
2023-03-08T02:15:55.692Z,30.43
2023-03-08T02:16:55.679Z,30.43
2023-03-08T02:17:55.668Z,30.46
2023-03-08T02:18:55.662Z,30.44
2023-03-08T02:19:55.655Z,30.40
2023-03-08T02:20:55.654Z,30.37
2023-03-08T02:21:55.641Z,30.36
2023-03-08T02:22:55.635Z,30.38
2023-03-08T02:23:55.622Z,30.39
2023-03-08T02:24:55.617Z,30.37
2023-03-08T02:25:55.607Z,30.38
2023-03-08T02:26:55.598Z,30.38
2023-03-08T02:27:55.589Z,30.38
2023-03-08T02:28:55.623Z,30.39
2023-03-08T02:29:55.580Z,30.38
2023-03-08T02:30:55.600Z,30.35
2023-03-08T02:31:55.559Z,30.36
2023-03-08T02:32:55.552Z,30.37
2023-03-08T02:33:55.546Z,30.35
2023-03-08T02:34:55.538Z,30.35
2023-03-08T02:35:55.612Z,30.35
2023-03-08T02:36:55.538Z,30.35
2023-03-08T02:37:55.521Z,30.37
2023-03-08T02:38:55.508Z,30.38
2023-03-08T02:39:55.518Z,30.36
2023-03-08T02:40:55.484Z,30.37
2023-03-08T02:41:55.483Z,30.36
2023-03-08T02:42:55.470Z,30.36
2023-03-08T02:43:55.462Z,30.36
2023-03-08T02:44:55.479Z,30.33
2023-03-08T02:45:55.443Z,30.32
2023-03-08T02:46:55.529Z,30.34
2023-03-08T02:47:55.436Z,30.32
2023-03-08T02:48:55.425Z,30.34
2023-03-08T02:49:55.422Z,30.33
2023-03-08T02:50:55.403Z,30.30
2023-03-08T02:51:55.406Z,30.32
2023-03-08T02:52:55.391Z,30.31
2023-03-08T02:53:55.378Z,30.32
2023-03-08T02:54:55.372Z,30.33
2023-03-08T02:55:55.364Z,30.33
2023-03-08T02:56:55.347Z,30.30
2023-03-08T02:57:55.352Z,30.31
2023-03-08T02:58:55.339Z,30.30
2023-03-08T02:59:55.333Z,30.29
2023-03-08T03:00:55.322Z,30.29
2023-03-08T03:01:55.316Z,30.29
2023-03-08T03:02:55.326Z,30.31
2023-03-08T03:03:55.313Z,30.32
2023-03-08T03:04:55.293Z,30.33
2023-03-08T03:05:55.281Z,30.31
2023-03-08T03:06:55.279Z,30.31
2023-03-08T03:07:55.270Z,30.32
2023-03-08T03:08:55.257Z,30.29
2023-03-08T03:09:55.255Z,30.31
2023-03-08T03:10:55.245Z,30.26
2023-03-08T03:11:55.233Z,30.28
2023-03-08T03:12:55.220Z,30.29
2023-03-08T03:13:55.217Z,30.31
2023-03-08T03:14:55.206Z,30.30
2023-03-08T03:15:55.267Z,30.31
2023-03-08T03:16:55.199Z,30.30
2023-03-08T03:17:55.180Z,30.31
2023-03-08T03:18:55.249Z,30.29
2023-03-08T03:19:55.164Z,30.29
2023-03-08T03:20:55.167Z,30.28
2023-03-08T03:21:55.149Z,30.29
2023-03-08T03:22:55.147Z,30.31
2023-03-08T03:23:55.144Z,30.31
2023-03-08T03:24:55.125Z,30.33
2023-03-08T03:25:55.114Z,30.32
2023-03-08T03:26:55.104Z,30.28
2023-03-08T03:27:55.098Z,30.26
2023-03-08T03:28:55.094Z,30.23
2023-03-08T03:29:55.084Z,30.23
2023-03-08T03:30:55.099Z,30.20
2023-03-08T03:31:55.064Z,30.23
2023-03-08T03:32:55.058Z,30.24
2023-03-08T03:33:55.047Z,30.22
2023-03-08T03:34:55.073Z,30.22
2023-03-08T03:35:55.096Z,30.20
2023-03-08T03:36:55.030Z,30.19
2023-03-08T03:37:55.011Z,30.20
2023-03-08T03:39:55.002Z,30.15
2023-03-08T03:40:54.995Z,30.15
2023-03-08T03:41:54.980Z,30.17
2023-03-08T03:42:54.972Z,30.17
2023-03-08T03:43:54.966Z,30.12
2023-03-08T03:44:54.954Z,30.11
2023-03-08T03:45:54.945Z,30.13
2023-03-08T03:46:54.943Z,30.14
2023-03-08T03:47:54.943Z,30.13
2023-03-08T03:48:54.932Z,30.14
2023-03-08T03:49:54.924Z,30.13
2023-03-08T03:50:54.936Z,30.11
2023-03-08T03:52:54.899Z,30.11
2023-03-08T03:54:54.882Z,30.12
2023-03-08T03:55:54.885Z,30.13
2023-03-08T03:56:54.868Z,30.15
2023-03-08T03:57:54.858Z,30.14
2023-03-08T03:58:54.869Z,30.12
2023-03-08T03:59:54.848Z,30.11
2023-03-08T04:00:54.832Z,30.12
2023-03-08T04:01:54.831Z,30.08
2023-03-08T04:02:54.891Z,30.06
2023-03-08T04:03:54.923Z,30.08
2023-03-08T04:04:54.830Z,30.06
2023-03-08T04:05:54.801Z,30.06
2023-03-08T04:06:54.815Z,30.07
2023-03-08T04:07:54.784Z,30.06
2023-03-08T04:08:54.773Z,30.07
2023-03-08T04:09:54.765Z,30.05
2023-03-08T04:10:54.763Z,30.05
2023-03-08T04:11:54.745Z,30.06
2023-03-08T04:12:54.752Z,30.05
2023-03-08T04:13:54.729Z,30.04
2023-03-08T04:14:54.725Z,30.04
2023-03-08T04:15:54.747Z,30.03
2023-03-08T04:16:54.712Z,30.03
2023-03-08T04:17:54.700Z,30.01
2023-03-08T04:18:54.692Z,29.98
2023-03-08T04:19:54.689Z,30.00
2023-03-08T04:20:54.687Z,30.00
2023-03-08T04:21:54.665Z,29.99
2023-03-08T04:22:54.787Z,29.97
2023-03-08T04:23:54.655Z,29.95
2023-03-08T04:24:54.648Z,29.94
2023-03-08T04:25:54.644Z,29.97
2023-03-08T04:27:54.618Z,29.95
2023-03-08T04:28:54.607Z,29.94
2023-03-08T04:29:54.617Z,29.93
2023-03-08T04:30:54.595Z,29.92
2023-03-08T04:31:54.588Z,29.95
2023-03-08T04:32:54.586Z,29.93
2023-03-08T04:33:54.568Z,29.94
2023-03-08T04:34:54.564Z,29.91
2023-03-08T04:35:54.573Z,29.89
2023-03-08T04:36:54.546Z,29.90
2023-03-08T04:37:54.535Z,29.90
2023-03-08T04:39:54.528Z,29.86
2023-03-08T04:40:54.526Z,29.87
2023-03-08T04:41:54.501Z,29.85
2023-03-08T04:42:54.497Z,29.84
2023-03-08T04:43:54.491Z,29.80
2023-03-08T04:44:54.484Z,29.82
2023-03-08T04:45:54.473Z,29.80
2023-03-08T04:46:54.675Z,29.80
2023-03-08T04:47:54.474Z,29.78
2023-03-08T04:48:54.445Z,29.81
2023-03-08T04:49:54.445Z,29.76
2023-03-08T04:50:54.431Z,29.77
2023-03-08T04:51:54.424Z,29.77
2023-03-08T04:52:54.427Z,29.75
2023-03-08T04:53:54.416Z,29.73
2023-03-08T04:54:54.491Z,29.72
2023-03-08T04:55:54.392Z,29.70
2023-03-08T04:56:54.384Z,29.70
2023-03-08T04:57:54.381Z,29.66
2023-03-08T04:58:54.384Z,29.65
2023-03-08T04:59:54.360Z,29.67
2023-03-08T05:00:54.355Z,29.64
2023-03-08T05:01:54.413Z,29.63
2023-03-08T05:02:54.335Z,29.62
2023-03-08T05:03:54.324Z,29.61
2023-03-08T05:04:54.378Z,29.59
2023-03-08T05:05:54.317Z,29.60
2023-03-08T05:06:54.310Z,29.59
2023-03-08T05:07:54.295Z,29.57
2023-03-08T05:08:54.288Z,29.54
2023-03-08T05:09:54.282Z,29.54
2023-03-08T05:10:54.322Z,29.55
2023-03-08T05:11:54.273Z,29.53
2023-03-08T05:12:54.250Z,29.53
2023-03-08T05:13:54.247Z,29.51
2023-03-08T05:14:54.239Z,29.50
2023-03-08T05:15:54.232Z,29.49
2023-03-08T05:16:54.224Z,29.47
2023-03-08T05:17:54.215Z,29.48
2023-03-08T05:18:54.202Z,29.47
2023-03-08T05:19:54.197Z,29.44
2023-03-08T05:20:54.203Z,29.45
2023-03-08T05:21:54.185Z,29.45
2023-03-08T05:22:59.126Z,29.45
2023-03-08T05:23:54.169Z,29.44
2023-03-08T05:24:54.845Z,29.44
2023-03-08T05:25:54.153Z,29.44
2023-03-08T05:26:54.170Z,29.42
2023-03-08T05:27:54.157Z,29.42
2023-03-08T05:28:54.124Z,29.40
2023-03-08T05:29:54.130Z,29.39
2023-03-08T05:30:54.107Z,29.41
2023-03-08T05:31:54.232Z,29.38
2023-03-08T05:32:54.088Z,29.38
2023-03-08T05:33:54.087Z,29.36
2023-03-08T05:34:54.108Z,29.37
2023-03-08T05:35:54.069Z,29.36
2023-03-08T05:37:54.050Z,29.36
2023-03-08T05:38:54.054Z,29.32
2023-03-08T05:39:54.032Z,29.35
2023-03-08T05:40:54.032Z,29.31
2023-03-08T05:41:54.053Z,29.34
2023-03-08T05:42:54.040Z,29.33
2023-03-08T05:43:54.014Z,29.31
2023-03-08T05:44:54.004Z,29.32
2023-03-08T05:45:54.029Z,29.29
2023-03-08T05:46:53.977Z,29.31
2023-03-08T05:47:53.974Z,29.31
2023-03-08T05:48:53.962Z,29.30
2023-03-08T05:49:53.957Z,29.28
2023-03-08T05:50:53.945Z,29.28
2023-03-08T05:51:53.942Z,29.27
2023-03-08T05:52:53.930Z,29.27
2023-03-08T05:53:53.919Z,29.24
2023-03-08T05:54:53.911Z,29.26
2023-03-08T05:55:53.905Z,29.26
2023-03-08T05:56:53.897Z,29.25
2023-03-08T05:57:53.885Z,29.26
2023-03-08T05:58:53.910Z,29.25
2023-03-08T05:59:53.867Z,29.25
2023-03-08T06:00:53.864Z,29.23
2023-03-08T06:01:53.923Z,29.23
2023-03-08T06:02:53.867Z,29.23
2023-03-08T06:03:53.840Z,29.21
2023-03-08T06:04:53.830Z,29.23
2023-03-08T06:05:53.823Z,29.23
2023-03-08T06:06:53.823Z,29.21
2023-03-08T06:07:53.803Z,29.20
2023-03-08T06:08:53.797Z,28.88
2023-03-08T06:09:53.812Z,28.92
2023-03-08T06:10:53.792Z,28.91
2023-03-08T06:11:53.771Z,28.84
2023-03-08T06:12:54.177Z,28.73
2023-03-08T06:13:53.754Z,28.57
2023-03-08T06:14:53.885Z,28.50
2023-03-08T06:15:53.750Z,28.52
2023-03-08T06:16:53.759Z,28.56
2023-03-08T06:17:54.204Z,28.73
2023-03-08T06:18:53.717Z,28.95
2023-03-08T06:19:53.711Z,29.20
2023-03-08T06:20:53.701Z,29.18
2023-03-08T06:21:53.695Z,29.16
2023-03-08T06:22:53.676Z,29.21
2023-03-08T06:23:53.712Z,29.23
2023-03-08T06:24:53.668Z,29.25
2023-03-08T06:25:53.652Z,29.30
2023-03-08T06:26:53.647Z,29.32
2023-03-08T06:28:53.630Z,29.37
2023-03-08T06:29:53.626Z,29.38
2023-03-08T06:30:53.706Z,29.37
2023-03-08T06:31:53.613Z,29.46
2023-03-08T06:32:53.693Z,29.43
2023-03-08T06:33:53.602Z,29.47
2023-03-08T06:34:53.596Z,29.45
2023-03-08T06:35:53.661Z,29.48
2023-03-08T06:36:53.574Z,29.52
2023-03-08T06:37:53.570Z,29.54
2023-03-08T06:38:53.575Z,29.57
2023-03-08T06:39:53.554Z,29.57
2023-03-08T06:40:53.700Z,29.63
2023-03-08T06:41:53.540Z,29.65
2023-03-08T06:42:53.526Z,29.72
2023-03-08T06:43:53.526Z,29.86
2023-03-08T06:44:53.520Z,29.66
2023-03-08T06:45:53.742Z,29.91
2023-03-08T06:46:53.516Z,29.87
2023-03-08T06:48:53.854Z,29.80
2023-03-08T06:49:53.518Z,29.77
2023-03-08T06:50:53.706Z,29.73
2023-03-08T06:51:53.478Z,29.81
2023-03-08T06:52:53.449Z,29.92
2023-03-08T06:53:53.749Z,30.28
2023-03-08T06:54:53.433Z,30.30
2023-03-08T06:55:53.424Z,30.43
2023-03-08T06:56:53.704Z,30.57
2023-03-08T06:57:53.440Z,30.73
2023-03-08T06:58:53.404Z,31.06
2023-03-08T06:59:53.414Z,30.99
2023-03-08T07:01:00.849Z,31.05
2023-03-08T07:03:53.376Z,31.32
2023-03-08T07:04:53.388Z,31.36
2023-03-08T07:05:53.365Z,31.52
2023-03-08T07:06:53.796Z,31.52
2023-03-08T07:09:53.307Z,31.72
2023-03-08T07:10:53.323Z,31.77
2023-03-08T07:11:53.728Z,31.89
2023-03-08T07:12:53.325Z,32.00
2023-03-08T07:13:53.705Z,32.04
2023-03-08T07:14:53.314Z,32.06
2023-03-08T07:16:53.264Z,32.10
2023-03-08T07:19:53.710Z,32.21
2023-03-08T07:20:53.223Z,32.26
2023-03-08T07:21:53.197Z,32.31
2023-03-08T07:22:53.191Z,32.32
2023-03-08T07:23:53.236Z,32.40
2023-03-08T07:25:53.189Z,32.35
2023-03-08T07:26:53.177Z,32.59
2023-03-08T07:27:53.171Z,32.67
2023-03-08T07:28:53.169Z,32.62
2023-03-08T07:29:54.747Z,32.65
2023-03-08T07:30:53.242Z,32.59
2023-03-08T07:31:53.177Z,32.65
2023-03-08T07:32:53.334Z,32.67
2023-03-08T07:33:53.088Z,32.73
2023-03-08T07:34:53.264Z,32.80
2023-03-08T07:35:53.115Z,32.75
2023-03-08T07:36:53.074Z,32.80
2023-03-08T07:37:53.292Z,32.83
2023-03-08T07:38:53.053Z,32.82
2023-03-08T07:39:53.044Z,32.74
2023-03-08T07:40:53.035Z,32.77
2023-03-08T07:41:53.215Z,32.02
2023-03-08T07:42:53.030Z,30.14
2023-03-08T07:43:53.007Z,29.71
2023-03-08T07:44:53.041Z,29.68
2023-03-08T07:45:53.023Z,33.62
2023-03-08T07:47:17.006Z,30.07
2023-03-08T07:48:17.692Z,29.61
2023-03-08T07:49:17.674Z,29.58
2023-03-08T07:50:18.041Z,29.46
2023-03-08T07:51:17.718Z,29.78
2023-03-08T07:53:17.668Z,29.59
2023-03-08T07:54:17.663Z,29.31
2023-03-08T07:55:18.032Z,28.09
2023-03-08T07:56:17.650Z,27.48
2023-03-08T07:57:17.612Z,27.30
2023-03-08T07:58:17.617Z,27.25
2023-03-08T07:59:17.597Z,27.27
2023-03-08T08:00:18.035Z,27.28
2023-03-08T08:01:17.597Z,27.34
2023-03-08T08:02:17.589Z,27.14
2023-03-08T08:03:18.641Z,26.64
2023-03-08T08:04:18.054Z,26.33
2023-03-08T08:05:18.458Z,26.04
2023-03-08T08:06:17.575Z,25.94
2023-03-08T08:07:18.156Z,25.80
2023-03-08T08:08:17.538Z,25.53
2023-03-08T08:09:17.524Z,25.34
2023-03-08T08:10:17.545Z,25.18
2023-03-08T08:11:17.496Z,25.09
2023-03-08T08:12:18.477Z,24.85
2023-03-08T08:13:17.596Z,24.85
2023-03-08T08:14:17.455Z,24.67
2023-03-08T08:15:17.704Z,24.53
2023-03-08T08:16:17.491Z,24.53
2023-03-08T08:17:17.446Z,24.45
2023-03-08T08:18:17.452Z,24.37
2023-03-08T08:19:17.428Z,24.38
2023-03-08T08:20:17.414Z,24.48
2023-03-08T08:21:17.534Z,24.30
2023-03-08T08:22:17.411Z,24.26
2023-03-08T08:23:18.010Z,24.23
2023-03-08T08:24:18.011Z,24.19
2023-03-08T08:25:17.364Z,24.24
2023-03-08T08:26:17.347Z,24.28
2023-03-08T08:27:17.616Z,24.28
2023-03-08T08:28:17.329Z,24.19
2023-03-08T08:29:17.313Z,24.20
2023-03-08T08:30:18.309Z,25.05
2023-03-08T08:31:17.317Z,25.87
2023-03-08T08:32:17.431Z,26.11
2023-03-08T08:33:17.535Z,25.98
2023-03-08T08:34:17.267Z,26.75
2023-03-08T08:35:17.271Z,26.47
2023-03-08T08:36:17.610Z,26.91
2023-03-08T08:37:17.250Z,26.98
2023-03-08T08:39:17.231Z,27.90
2023-03-08T08:40:17.213Z,27.68
2023-03-08T08:41:17.221Z,28.30
2023-03-08T08:42:17.328Z,28.33
2023-03-08T08:43:17.541Z,28.69
2023-03-08T08:44:17.211Z,28.76
2023-03-08T08:45:17.167Z,28.96
2023-03-08T08:46:17.535Z,29.09
2023-03-08T08:47:17.879Z,29.25
2023-03-08T08:48:17.149Z,29.32
2023-03-08T08:49:17.137Z,29.39
2023-03-08T08:50:17.132Z,29.62
2023-03-08T08:51:17.516Z,29.90
2023-03-08T08:52:17.125Z,29.74
2023-03-08T08:53:17.134Z,29.75
2023-03-08T08:54:20.375Z,29.76
2023-03-08T08:55:17.567Z,29.98
2023-03-08T08:56:27.177Z,29.97
2023-03-08T08:57:17.238Z,30.00
2023-03-08T08:58:17.900Z,30.42
2023-03-08T08:59:17.053Z,30.63
2023-03-08T09:00:18.103Z,30.57
2023-03-08T09:01:17.318Z,30.67
2023-03-08T09:02:17.302Z,31.07
2023-03-08T09:03:17.520Z,30.99
2023-03-08T09:04:17.292Z,30.96
2023-03-08T09:05:17.059Z,30.86
2023-03-08T09:06:17.001Z,30.67
2023-03-08T09:07:17.033Z,30.58
2023-03-08T09:08:16.981Z,30.13
2023-03-08T09:09:16.966Z,30.18
2023-03-08T09:10:17.031Z,29.80
2023-03-08T09:11:16.972Z,30.12
2023-03-08T09:12:17.040Z,30.13
2023-03-08T09:13:17.010Z,30.23
2023-03-08T09:14:16.925Z,30.21
2023-03-08T09:15:16.920Z,30.32
2023-03-08T09:16:16.931Z,30.08
2023-03-08T09:17:17.036Z,30.02
2023-03-08T09:18:16.894Z,29.26
2023-03-08T09:19:16.957Z,29.40
2023-03-08T09:20:16.893Z,29.33
2023-03-08T09:21:16.882Z,29.54
2023-03-08T09:22:17.030Z,29.91
2023-03-08T09:23:16.894Z,29.81
2023-03-08T09:24:16.863Z,29.79
2023-03-08T09:25:16.846Z,30.07
2023-03-08T09:26:16.866Z,30.11
2023-03-08T09:27:17.034Z,29.94
2023-03-08T09:28:16.849Z,29.56
2023-03-08T09:30:16.806Z,29.79
2023-03-08T09:31:16.946Z,29.47
2023-03-08T09:32:17.197Z,29.27
2023-03-08T09:33:16.778Z,29.25
2023-03-08T09:34:16.775Z,29.23
2023-03-08T09:35:16.767Z,28.94
2023-03-08T09:36:16.747Z,29.70
2023-03-08T09:37:16.739Z,29.90
2023-03-08T09:38:17.064Z,30.14
2023-03-08T09:39:16.724Z,30.32
2023-03-08T09:40:16.728Z,30.35
2023-03-08T09:41:16.708Z,30.45
2023-03-08T09:42:16.723Z,30.42
2023-03-08T09:43:17.041Z,30.47
2023-03-08T09:44:17.041Z,30.36
2023-03-08T09:45:16.672Z,30.31
2023-03-08T09:46:16.697Z,30.37
2023-03-08T09:47:16.659Z,30.06
2023-03-08T09:48:16.668Z,29.88
2023-03-08T09:49:17.053Z,29.64
2023-03-08T09:50:16.634Z,29.24
2023-03-08T09:51:16.623Z,29.19
2023-03-08T09:52:16.616Z,29.39
2023-03-08T09:53:16.608Z,29.44
2023-03-08T09:54:17.047Z,29.75
2023-03-08T09:55:16.626Z,29.06
2023-03-08T09:56:16.583Z,28.78
2023-03-08T09:57:16.636Z,28.58
2023-03-08T09:58:16.625Z,28.80
2023-03-08T09:59:17.047Z,27.75
2023-03-08T10:00:16.539Z,27.63
2023-03-08T10:01:16.546Z,28.16
2023-03-08T10:02:16.523Z,28.22
2023-03-08T10:03:16.622Z,28.43
2023-03-08T10:04:16.508Z,28.35
2023-03-08T10:05:16.541Z,28.66
2023-03-08T10:06:16.493Z,28.94
2023-03-08T10:07:16.477Z,28.96
2023-03-08T10:08:16.489Z,29.09
2023-03-08T10:09:16.463Z,28.84
2023-03-08T10:10:16.577Z,28.97
2023-03-08T10:11:16.442Z,29.21
2023-03-08T10:12:16.432Z,29.21
2023-03-08T10:13:16.423Z,29.21
2023-03-08T10:14:17.021Z,29.17
2023-03-08T10:15:16.410Z,29.38
2023-03-08T10:16:16.448Z,28.69
2023-03-08T10:17:16.392Z,29.18
2023-03-08T10:18:16.895Z,29.40
2023-03-08T10:19:16.577Z,29.02
2023-03-08T10:20:16.367Z,28.90
2023-03-08T10:21:16.669Z,28.72
2023-03-08T10:22:16.359Z,29.15
2023-03-08T10:23:16.347Z,29.64
2023-03-08T10:24:16.350Z,29.49
2023-03-08T10:25:16.371Z,29.74
2023-03-08T10:26:16.580Z,29.93
2023-03-08T10:27:16.307Z,30.09
2023-03-08T10:28:16.299Z,30.23
2023-03-08T10:29:16.293Z,30.33
2023-03-08T10:30:16.310Z,30.45
2023-03-08T10:31:16.590Z,30.53
2023-03-08T10:32:16.357Z,30.62
2023-03-08T10:33:16.268Z,30.60
2023-03-08T10:34:16.723Z,30.58
2023-03-08T10:35:16.264Z,30.59
2023-03-08T10:36:16.232Z,30.66
2023-03-08T10:37:16.576Z,30.52
